Latest Weather Observations for Lombadina

IDW60801

Issued at 7:32 am WST Sunday 14 February 2016 (issued every 30 minutes, with the page automatically refreshed every 10 minutes)

About weather observations | Map of weather stations | Latest weather observations for WA | Other Formats
Station Details ID: 503016 Name: LOMBADINA AIRSTRIP Lat: -16.52 Lon: 122.92 Height: 42.0 m
Data from the previous 72 hours. | See also: Recent months for locations in Western Australia
Date/Time
WST
Temp
°C
App
Temp
°C
Dew
Point
Rel
Hum
%
Delta-T
°C
Wind Press
QNH
hPa
Press
MSL
hPa
Rain
since 9 am
mm
Dir
 
Spd
km/h
Gust
km/h
Spd
kts
Gust
kts
14/07:30am 30.7 36.1 26.0 76 3.4 W 9 19 5 10 1010.1 1009.8 0.0
14/07:00am 29.9 35.4 26.1 80 2.7 W 9 17 5 9 1009.5 1009.2 0.0
14/06:30am 29.4 35.4 26.4 84 2.1 W 7 15 4 8 1009.2 1008.9 0.0
14/06:00am 28.8 35.3 26.8 89 1.4 W 6 13 3 7 1009.0 1008.7 0.0
14/05:30am 28.8 35.3 26.8 89 1.4 W 6 15 3 8 1008.8 1008.4 0.0
14/05:00am 28.9 35.5 26.9 89 1.4 W 6 9 3 5 1008.4 1008.0 0.0
14/04:30am 29.0 35.9 26.8 88 1.6 W 4 7 2 4 1008.2 1007.8 0.0
14/04:00am 29.2 35.5 26.8 87 1.7 W 7 13 4 7 1007.9 1007.5 0.0
14/03:30am 28.4 35.0 27.0 92 1.0 WNW 6 9 3 5 1007.7 1007.3 0.0
14/03:00am 28.3 35.5 26.7 91 1.1 WSW 2 4 1 2 1008.2 1007.8 0.0
14/02:30am 28.8 35.3 26.8 89 1.4 SSE 6 9 3 5 1008.4 1008.0 0.0
14/02:00am 29.2 35.9 26.6 86 1.9 W 4 9 2 5 1007.8 1007.4 0.0
14/01:30am 29.3 35.5 26.3 84 2.1 W 6 11 3 6 1007.9 1007.5 0.0
14/01:00am 29.5 35.6 26.5 84 2.1 W 7 15 4 8 1008.2 1007.8 0.0
14/12:30am 29.4 35.9 26.8 86 1.9 WNW 6 9 3 5 1008.4 1008.0 0.0
14/12:00am 29.3 35.6 26.5 85 2.0 WSW 6 11 3 6 1008.7 1008.3 0.0
 
Date/Time
WST
Temp
°C
App
Temp
°C
Dew
Point
Rel
Hum
%
Delta-T
°C
Wind Press
QNH
hPa
Press
MSL
hPa
Rain
since 9 am
mm
Dir
 
Spd
km/h
Gust
km/h
Spd
kts
Gust
kts
13/11:30pm 29.4 35.5 26.2 83 2.3 W 6 11 3 6 1009.3 1009.0 0.0
13/11:00pm 29.5 36.0 26.3 83 2.3 W 4 7 2 4 1010.3 1010.0 0.0
13/10:30pm 29.4 35.8 26.6 85 2.0 WSW 6 9 3 5 1010.4 1010.1 0.0
13/10:00pm 29.4 35.8 26.6 85 2.0 WSW 6 9 3 5 1010.1 1009.8 0.0
13/09:30pm 29.4 35.8 26.6 85 2.0 W 6 9 3 5 1010.3 1010.0 0.0
13/09:00pm 29.4 35.8 26.6 85 2.0 W 6 9 3 5 1010.1 1009.8 0.0
13/08:30pm 29.4 35.6 26.6 85 2.0 WSW 7 11 4 6 1010.3 1010.0 0.0
13/08:00pm 29.4 35.4 26.4 84 2.1 W 7 11 4 6 1010.1 1009.8 0.0
13/07:30pm 29.6 35.6 26.4 83 2.3 WSW 7 13 4 7 1009.8 1009.5 0.0
13/07:00pm 29.8 35.8 26.4 82 2.4 WSW 7 15 4 8 1009.2 1008.9 0.0
13/06:30pm 30.1 36.1 26.3 80 2.7 WSW 7 15 4 8 1008.9 1008.6 0.0
13/06:00pm 30.4 35.4 26.6 80 2.7 WSW 13 20 7 11 1008.8 1008.4 0.0
13/05:30pm 30.8 35.9 26.1 76 3.4 W 11 22 6 12 1007.7 1007.3 0.0
13/05:00pm 31.5 36.3 26.3 74 3.7 WSW 13 22 7 12 1007.6 1007.2 0.0
13/04:30pm 31.8 36.2 25.6 69 4.4 W 13 28 7 15 1007.5 1007.1 0.0
13/04:00pm 32.0 35.1 24.8 65 5.1 WSW 17 28 9 15 1007.7 1007.3 0.0
13/03:30pm 32.8 37.0 25.3 64 5.3 W 13 26 7 14 1007.8 1007.4 0.0
13/03:00pm 32.7 36.8 25.2 64 5.3 W 13 24 7 13 1008.1 1007.7 0.0
13/02:30pm 32.1 36.2 25.7 69 4.6 WSW 15 26 8 14 1008.2 1007.8 0.0
13/02:00pm 31.7 36.3 26.0 72 4.1 WSW 13 24 7 13 1008.4 1008.0 0.0
13/01:30pm 31.5 35.7 25.4 70 4.3 WSW 13 20 7 11 1008.6 1008.2 0.0
13/01:00pm 32.0 36.0 25.1 67 4.9 W 13 24 7 13 1008.8 1008.4 0.0
13/12:30pm 32.4 36.5 25.7 68 4.8 W 15 26 8 14 1009.0 1008.7 0.0
13/12:00pm 32.7 36.4 25.8 67 4.9 WSW 17 28 9 15 1008.9 1008.6 0.0
13/11:30am 32.6 35.3 24.1 61 5.9 W 17 26 9 14 1009.5 1009.2 0.0
13/11:00am 32.6 36.3 25.2 65 5.3 W 15 24 8 13 1009.9 1009.6 0.0
13/10:30am 32.8 37.1 26.1 68 4.8 WSW 15 26 8 14 1010.0 1009.7 0.0
13/10:00am 31.9 36.2 25.5 69 4.6 WSW 13 22 7 12 1010.3 1010.0 0.0
13/09:30am 31.6 35.9 25.5 70 4.3 WSW 13 20 7 11 1010.8 1010.5 0.0
13/09:00am 31.5 36.2 26.1 73 3.9 W 13 22 7 12 1011.0 1010.7 3.0
13/08:30am 30.7 35.7 26.0 76 3.4 W 11 19 6 10 1010.9 1010.6 3.0
13/08:00am 30.6 35.8 26.3 78 3.1 W 11 17 6 9 1011.0 1010.7 3.0
13/07:30am 30.1 36.4 26.5 81 2.6 W 6 11 3 6 1010.8 1010.5 3.0
13/07:00am 29.8 37.2 26.4 82 2.4 CALM 0 6 0 3 1010.7 1010.4 3.0
13/06:30am 28.9 36.3 26.5 87 1.7 CALM 0 0 0 0 1010.5 1010.2 3.0
13/06:00am 28.2 34.9 26.0 88 1.6 E 2 4 1 2 1010.6 1010.3 3.0
13/05:30am 27.9 34.3 26.1 90 1.3 ENE 4 6 2 3 1010.4 1010.1 3.0
13/05:00am 27.9 34.2 25.9 89 1.4 SE 4 6 2 3 1009.7 1009.4 3.0
13/04:30am 28.3 34.3 26.1 88 1.6 E 6 9 3 5 1009.5 1009.2 3.0
13/04:00am 28.4 35.6 26.2 88 1.6 CALM 0 4 0 2 1009.4 1009.1 3.0
13/03:30am 28.6 34.1 25.6 84 2.1 W 7 13 4 7 1008.6 1008.2 3.0
13/03:00am 28.7 34.3 25.5 83 2.3 W 6 11 3 6 1008.3 1007.9 3.0
13/02:30am 29.0 33.9 25.2 80 2.7 WNW 9 17 5 9 1008.1 1007.7 3.0
13/02:00am 29.1 33.4 24.9 78 2.9 WNW 11 20 6 11 1007.8 1007.4 3.0
13/01:30am 28.8 33.8 24.8 79 2.8 NW 7 15 4 8 1008.1 1007.7 3.0
13/01:00am 28.9 32.8 24.2 76 3.3 NW 11 19 6 10 1008.3 1007.9 3.0
13/12:30am 29.1 33.0 24.2 75 3.4 NW 11 17 6 9 1008.5 1008.1 3.0
13/12:00am 28.9 34.0 24.9 79 2.8 NW 7 17 4 9 1008.9 1008.6 3.0
 
Date/Time
WST
Temp
°C
App
Temp
°C
Dew
Point
Rel
Hum
%
Delta-T
°C
Wind Press
QNH
hPa
Press
MSL
hPa
Rain
since 9 am
mm
Dir
 
Spd
km/h
Gust
km/h
Spd
kts
Gust
kts
12/11:30pm 28.7 32.9 25.3 82 2.4 NW 13 24 7 13 1009.0 1008.7 3.0
12/11:00pm 29.4 33.3 24.3 74 3.6 WNW 11 20 6 11 1009.1 1008.8 3.0
12/10:30pm 28.7 33.8 24.7 79 2.8 WNW 6 13 3 7 1009.3 1009.0 3.0
12/10:00pm 28.2 33.3 25.6 86 1.8 NNW 9 15 5 8 1009.5 1009.2 3.0
12/09:30pm 27.7 33.2 25.3 87 1.7 N 6 9 3 5 1010.2 1009.9 3.0
12/09:00pm 27.6 32.7 25.0 86 1.8 NNE 7 11 4 6 1010.3 1010.0 3.0
12/08:30pm 27.7 33.5 25.1 86 1.8 NE 4 9 2 5 1010.8 1010.5 3.0
12/08:00pm 27.7 31.3 24.3 82 2.4 NNW 13 20 7 11 1009.3 1009.0 3.0
12/07:30pm 27.4 30.3 20.7 67 4.4 NE 6 15 3 8 1010.0 1009.7 3.0
12/07:00pm 27.5 30.4 21.1 68 4.3 S 7 15 4 8 1009.1 1008.8 3.0
12/06:30pm 28.4 29.5 18.8 56 6.2 ESE 11 17 6 9 1008.6 1008.2 3.0
12/06:00pm 27.7 29.9 19.5 61 5.3 SSE 7 15 4 8 1008.1 1007.7 3.0
12/05:30pm 24.4 25.8 21.9 86 1.7 SSE 17 33 9 18 1009.5 1009.2 3.0
12/05:28pm 24.0 25.4 21.9 88 1.4 SE 17 33 9 18 1009.8 1009.5 3.0
12/05:11pm 22.5 20.6 21.0 91 1.0 SE 32 61 17 33 1010.1 1009.8 1.6
12/05:03pm 25.4 23.8 19.1 68 4.0 SE 26 61 14 33 1009.7 1009.4 0.0
12/05:00pm 26.2 25.0 18.3 61 5.0 SE 22 56 12 30 1009.5 1009.2 0.0
12/04:48pm 29.1 29.0 18.8 53 6.7 SSW 17 69 9 37 1009.8 1009.5 0.0
12/04:47pm 31.5 35.7 25.4 70 4.3 SW 13 46 7 25 1009.7 1009.4 0.0
12/04:30pm 31.3 35.6 26.1 74 3.7 W 15 28 8 15 1007.1 1006.7 0.0
12/04:00pm 31.3 35.1 25.9 73 3.9 W 17 30 9 16 1006.2 1005.8 0.0
12/03:30pm 31.1 34.5 26.1 75 3.6 WNW 20 33 11 18 1006.0 1005.6 0.0
12/03:00pm 32.4 36.2 26.5 71 4.3 WNW 19 32 10 17 1005.9 1005.5 0.0
12/02:30pm 32.6 36.2 26.2 69 4.6 WNW 19 32 10 17 1006.1 1005.7 0.0
12/02:00pm 33.0 36.5 25.5 64 5.3 WNW 17 28 9 15 1006.7 1006.3 0.0
12/01:30pm 31.8 35.0 25.6 69 4.4 WNW 19 30 10 16 1007.2 1006.8 0.0
12/01:00pm 32.3 35.2 25.1 65 5.1 WNW 19 32 10 17 1007.5 1007.1 0.0
12/12:30pm 32.8 37.0 25.9 67 4.9 NW 15 26 8 14 1007.8 1007.4 0.0
12/12:00pm 32.0 36.0 25.6 69 4.6 WNW 15 26 8 14 1008.1 1007.7 0.0
12/11:30am 32.1 35.9 25.9 70 4.4 WNW 17 28 9 15 1008.4 1008.0 0.0
12/11:00am 32.4 36.4 25.0 65 5.2 W 13 28 7 15 1008.7 1008.3 0.0
12/10:30am 32.7 36.9 26.0 68 4.8 WNW 15 28 8 15 1008.7 1008.3 0.0
12/10:00am 31.8 36.0 25.9 71 4.2 WNW 15 26 8 14 1008.9 1008.6 0.0
12/09:30am 31.3 35.5 25.9 73 3.9 WNW 15 26 8 14 1009.2 1008.9 0.0
12/09:00am 30.8 35.2 26.3 77 3.2 WNW 15 24 8 13 1009.4 1009.1 0.0
12/08:30am 30.8 34.9 25.8 74 3.6 WNW 15 24 8 13 1009.3 1009.0 0.0
12/08:00am 31.2 35.8 26.5 76 3.4 W 15 24 8 13 1009.2 1008.9 0.0
12/07:30am 31.2 36.3 26.2 75 3.6 W 11 24 6 13 1009.1 1008.8 0.0
12/07:00am 30.2 34.9 26.1 79 2.9 WNW 13 24 7 13 1008.8 1008.4 0.0
12/06:30am 29.7 35.4 26.5 83 2.3 W 9 17 5 9 1008.9 1008.6 0.0
12/06:00am 29.1 35.2 26.5 86 1.9 NW 7 13 4 7 1008.7 1008.3 0.0
12/05:30am 28.8 35.2 26.6 88 1.6 WNW 6 9 3 5 1008.4 1008.0 0.0
12/05:00am 28.8 35.2 26.6 88 1.6 WNW 6 9 3 5 1008.1 1007.7 0.0
12/04:30am 28.7 35.5 26.7 89 1.4 NNE 4 7 2 4 1008.4 1008.0 0.0
12/04:00am 28.6 35.7 26.6 89 1.4 NE 2 4 1 2 1007.8 1007.4 0.0
12/03:30am 28.5 34.6 26.5 89 1.4 W 7 15 4 8 1007.3 1006.9 0.0
12/03:00am 28.5 34.6 26.5 89 1.4 WSW 7 15 4 8 1007.1 1006.7 0.0
12/02:30am 28.6 34.3 26.4 88 1.6 W 9 15 5 8 1007.0 1006.6 0.0
12/02:00am 28.8 34.2 26.6 88 1.6 WSW 11 20 6 11 1007.0 1006.6 0.0
12/01:30am 28.8 34.2 26.6 88 1.6 W 11 20 6 11 1007.0 1006.6 0.0
12/01:00am 28.9 34.0 26.7 88 1.6 W 13 20 7 11 1006.9 1006.5 0.0
12/12:30am 28.9 34.4 26.7 88 1.6 W 11 20 6 11 1007.4 1007.0 0.0
12/12:00am 28.9 34.5 26.9 89 1.4 W 11 20 6 11 1007.5 1007.1 0.0
 
Date/Time
WST
Temp
°C
App
Temp
°C
Dew
Point
Rel
Hum
%
Delta-T
°C
Wind Press
QNH
hPa
Press
MSL
hPa
Rain
since 9 am
mm
Dir
 
Spd
km/h
Gust
km/h
Spd
kts
Gust
kts
11/11:30pm 28.9 34.0 26.7 88 1.6 W 13 22 7 12 1007.7 1007.3 0.0
11/11:03pm 29.0 34.3 27.0 89 1.4 W 13 22 7 12 1008.0 1007.6 0.0
11/11:00pm 29.0 34.3 27.0 89 1.4 W 13 22 7 12 1007.9 1007.5 0.0
11/10:30pm 29.0 34.8 27.2 90 1.3 W 11 19 6 10 1008.4 1008.0 0.0
11/10:28pm 29.0 34.8 27.2 90 1.3 WNW 11 19 6 10 1008.4 1008.0 0.0
11/10:00pm 28.9 35.2 27.3 91 1.2 W 9 17 5 9 1008.3 1007.9 0.0
11/09:48pm 29.0 35.3 27.4 91 1.2 W 9 20 5 11 1008.2 1007.8 0.0
11/09:32pm 29.1 35.7 27.7 92 1.0 W 9 19 5 10 1008.2 1007.8 0.0
11/09:30pm 29.0 35.5 27.6 92 1.0 W 9 17 5 9 1008.2 1007.8 0.0
11/09:00pm 29.1 35.5 27.5 91 1.2 W 9 19 5 10 1007.7 1007.3 0.0
11/08:30pm 29.2 35.4 27.2 89 1.4 W 9 17 5 9 1007.4 1007.0 0.0
11/08:00pm 29.4 36.0 27.2 88 1.6 WNW 7 13 4 7 1007.1 1006.7 0.0
11/07:30pm 29.6 35.7 27.0 86 1.9 WNW 9 17 5 9 1006.7 1006.3 0.0
11/07:00pm 29.8 35.7 26.8 84 2.2 W 9 19 5 10 1006.4 1006.0 0.0
11/06:30pm 30.1 35.3 26.3 80 2.7 W 11 20 6 11 1006.0 1005.6 0.0
11/06:00pm 30.7 35.6 25.8 75 3.5 W 11 19 6 10 1005.8 1005.4 0.0
11/05:30pm 31.3 36.0 25.6 71 4.0 W 11 20 6 11 1005.5 1005.1 0.0
11/05:00pm 31.6 36.4 26.2 73 3.9 W 13 24 7 13 1005.1 1004.7 0.0
11/04:30pm 32.5 36.9 25.6 67 4.9 WNW 13 26 7 14 1004.6 1004.3 0.0
11/04:00pm 33.2 37.6 26.2 66 5.0 W 15 26 8 14 1004.5 1004.2 0.0
11/03:30pm 33.9 38.4 26.4 65 5.4 W 15 28 8 15 1004.5 1004.2 0.0
11/03:00pm 34.5 39.1 25.9 61 6.2 W 13 22 7 12 1005.1 1004.7 0.0
11/02:30pm 34.3 38.5 25.4 60 6.3 W 13 26 7 14 1005.3 1004.9 0.0
11/02:00pm 33.7 37.2 25.4 62 5.9 W 17 26 9 14 1005.4 1005.0 0.0
11/01:30pm 33.3 36.3 24.7 60 6.1 W 17 30 9 16 1005.7 1005.3 0.0
11/01:00pm 33.6 36.8 25.0 60 6.1 W 17 33 9 18 1006.2 1005.8 0.0
11/12:30pm 33.2 36.4 24.9 61 5.9 W 17 30 9 16 1006.4 1006.0 0.0
11/12:00pm 33.0 35.5 24.5 61 6.0 W 19 30 10 16 1006.8 1006.4 0.0
11/11:30am 32.3 35.3 24.6 64 5.4 W 17 32 9 17 1007.1 1006.7 0.0
11/11:00am 31.8 34.5 24.7 66 5.0 W 19 30 10 16 1007.4 1007.0 0.0
11/10:30am 32.8 36.2 25.9 67 4.9 W 19 30 10 16 1007.6 1007.2 0.0
11/10:00am 32.0 35.3 25.1 67 4.9 W 17 28 9 15 1008.0 1007.6 0.0
11/09:30am 32.2 36.0 25.3 67 4.9 W 15 28 8 15 1008.3 1007.9 0.0
11/09:00am 31.3 34.8 24.9 69 4.5 WNW 15 26 8 14 1008.5 1008.1 0.0
11/08:30am 31.3 34.5 25.6 71 4.0 WNW 19 30 10 16 1008.5 1008.1 0.0
11/08:00am 31.0 35.0 25.6 73 3.8 WNW 15 24 8 13 1008.6 1008.2 0.0

Other Formats:

Comma delimited format used in spreadsheet applications
http://www.bom.gov.au/fwo/IDW60801/IDW60801.99206.axf

JavaScript Object Notation format (JSON) in row-major order
http://www.bom.gov.au/fwo/IDW60801/IDW60801.99206.json